sensor_id;sensor_type;location;lat;lon;timestamp;P1;durP1;ratioP1;P2;durP2;ratioP2
61015;SDS011;46902;52.920;6.536;2023-05-15T00:01:15;41.38;;;32.92;;
61015;SDS011;46902;52.920;6.536;2023-05-15T00:03:40;47.00;;;34.25;;
61015;SDS011;46902;52.920;6.536;2023-05-15T00:06:07;39.55;;;31.48;;
61015;SDS011;46902;52.920;6.536;2023-05-15T00:08:33;37.60;;;30.42;;
61015;SDS011;46902;52.920;6.536;2023-05-15T00:10:59;35.60;;;29.83;;
61015;SDS011;46902;52.920;6.536;2023-05-15T00:13:24;36.13;;;30.00;;
61015;SDS011;46902;52.920;6.536;2023-05-15T00:15:50;32.47;;;27.30;;
61015;SDS011;46902;52.920;6.536;2023-05-15T00:18:15;50.20;;;27.10;;
61015;SDS011;46902;52.920;6.536;2023-05-15T00:20:41;30.00;;;25.95;;
61015;SDS011;46902;52.920;6.536;2023-05-15T00:23:07;28.80;;;25.70;;
61015;SDS011;46902;52.920;6.536;2023-05-15T00:25:33;31.60;;;26.33;;
61015;SDS011;46902;52.920;6.536;2023-05-15T00:27:59;51.88;;;29.80;;
61015;SDS011;46902;52.920;6.536;2023-05-15T00:30:24;46.88;;;28.38;;
61015;SDS011;46902;52.920;6.536;2023-05-15T00:32:50;32.38;;;27.58;;
61015;SDS011;46902;52.920;6.536;2023-05-15T00:35:15;34.08;;;29.60;;
61015;SDS011;46902;52.920;6.536;2023-05-15T00:37:41;40.03;;;30.50;;
61015;SDS011;46902;52.920;6.536;2023-05-15T00:40:08;33.88;;;29.58;;
61015;SDS011;46902;52.920;6.536;2023-05-15T00:42:36;35.85;;;30.67;;
61015;SDS011;46902;52.920;6.536;2023-05-15T00:45:02;34.70;;;26.67;;
61015;SDS011;46902;52.920;6.536;2023-05-15T00:47:32;35.42;;;29.27;;
61015;SDS011;46902;52.920;6.536;2023-05-15T00:49:58;39.10;;;30.65;;
61015;SDS011;46902;52.920;6.536;2023-05-15T00:52:25;36.88;;;29.92;;
61015;SDS011;46902;52.920;6.536;2023-05-15T00:54:51;32.75;;;29.13;;
61015;SDS011;46902;52.920;6.536;2023-05-15T00:57:16;35.33;;;29.65;;
61015;SDS011;46902;52.920;6.536;2023-05-15T00:59:42;35.95;;;29.92;;
61015;SDS011;46902;52.920;6.536;2023-05-15T01:02:11;35.83;;;29.23;;
61015;SDS011;46902;52.920;6.536;2023-05-15T01:04:39;42.65;;;29.77;;
61015;SDS011;46902;52.920;6.536;2023-05-15T01:07:05;34.08;;;27.42;;
61015;SDS011;46902;52.920;6.536;2023-05-15T01:09:31;32.95;;;28.52;;
61015;SDS011;46902;52.920;6.536;2023-05-15T01:11:57;43.72;;;29.48;;
61015;SDS011;46902;52.920;6.536;2023-05-15T01:14:24;37.35;;;29.88;;
61015;SDS011;46902;52.920;6.536;2023-05-15T01:16:51;32.47;;;28.17;;
61015;SDS011;46902;52.920;6.536;2023-05-15T01:19:16;32.00;;;27.58;;
61015;SDS011;46902;52.920;6.536;2023-05-15T01:24:42;36.88;;;31.08;;
61015;SDS011;46902;52.920;6.536;2023-05-15T01:32:08;39.65;;;31.38;;
61015;SDS011;46902;52.920;6.536;2023-05-15T01:34:42;38.03;;;30.42;;
61015;SDS011;46902;52.920;6.536;2023-05-15T01:37:13;39.55;;;31.00;;
61015;SDS011;46902;52.920;6.536;2023-05-15T01:39:42;38.15;;;30.70;;
61015;SDS011;46902;52.920;6.536;2023-05-15T01:42:13;36.47;;;30.50;;
61015;SDS011;46902;52.920;6.536;2023-05-15T01:44:42;39.63;;;31.88;;
61015;SDS011;46902;52.920;6.536;2023-05-15T01:47:18;36.08;;;29.55;;
61015;SDS011;46902;52.920;6.536;2023-05-15T01:49:46;38.17;;;31.70;;
61015;SDS011;46902;52.920;6.536;2023-05-15T01:52:19;48.03;;;32.25;;
61015;SDS011;46902;52.920;6.536;2023-05-15T01:54:50;51.88;;;32.92;;
61015;SDS011;46902;52.920;6.536;2023-05-15T01:57:17;41.80;;;31.88;;
61015;SDS011;46902;52.920;6.536;2023-05-15T01:59:44;41.17;;;31.48;;
61015;SDS011;46902;52.920;6.536;2023-05-15T02:02:10;36.63;;;30.17;;
61015;SDS011;46902;52.920;6.536;2023-05-15T02:04:37;39.20;;;32.13;;
61015;SDS011;46902;52.920;6.536;2023-05-15T02:07:04;34.65;;;29.42;;
61015;SDS011;46902;52.920;6.536;2023-05-15T02:09:31;37.55;;;30.92;;
61015;SDS011;46902;52.920;6.536;2023-05-15T02:11:58;37.08;;;29.95;;
61015;SDS011;46902;52.920;6.536;2023-05-15T02:14:26;41.50;;;30.35;;
61015;SDS011;46902;52.920;6.536;2023-05-15T02:16:53;46.78;;;31.63;;
61015;SDS011;46902;52.920;6.536;2023-05-15T02:19:19;41.35;;;30.30;;
61015;SDS011;46902;52.920;6.536;2023-05-15T02:21:45;39.08;;;30.63;;
61015;SDS011;46902;52.920;6.536;2023-05-15T02:24:11;34.22;;;29.77;;
61015;SDS011;46902;52.920;6.536;2023-05-15T02:32:13;40.28;;;31.40;;
61015;SDS011;46902;52.920;6.536;2023-05-15T02:34:51;42.17;;;31.35;;
61015;SDS011;46902;52.920;6.536;2023-05-15T02:37:26;93.55;;;32.80;;
61015;SDS011;46902;52.920;6.536;2023-05-15T02:39:55;49.97;;;30.92;;
61015;SDS011;46902;52.920;6.536;2023-05-15T02:42:23;45.53;;;31.33;;
61015;SDS011;46902;52.920;6.536;2023-05-15T02:44:55;61.20;;;33.20;;
61015;SDS011;46902;52.920;6.536;2023-05-15T02:47:22;39.35;;;30.88;;
61015;SDS011;46902;52.920;6.536;2023-05-15T02:49:48;68.28;;;31.50;;
61015;SDS011;46902;52.920;6.536;2023-05-15T02:52:14;47.60;;;33.15;;
61015;SDS011;46902;52.920;6.536;2023-05-15T02:54:40;38.13;;;29.67;;
61015;SDS011;46902;52.920;6.536;2023-05-15T02:57:05;38.97;;;32.05;;
61015;SDS011;46902;52.920;6.536;2023-05-15T02:59:32;41.30;;;32.90;;
61015;SDS011;46902;52.920;6.536;2023-05-15T03:01:58;41.20;;;33.15;;
61015;SDS011;46902;52.920;6.536;2023-05-15T03:04:24;45.58;;;33.35;;
61015;SDS011;46902;52.920;6.536;2023-05-15T03:06:50;40.38;;;32.67;;
61015;SDS011;46902;52.920;6.536;2023-05-15T03:09:15;44.92;;;33.65;;
61015;SDS011;46902;52.920;6.536;2023-05-15T03:11:42;40.63;;;31.73;;
61015;SDS011;46902;52.920;6.536;2023-05-15T03:14:07;46.97;;;32.03;;
61015;SDS011;46902;52.920;6.536;2023-05-15T03:16:33;46.72;;;33.90;;
61015;SDS011;46902;52.920;6.536;2023-05-15T03:19:00;44.78;;;34.00;;
61015;SDS011;46902;52.920;6.536;2023-05-15T03:21:26;41.85;;;32.63;;
61015;SDS011;46902;52.920;6.536;2023-05-15T03:23:52;50.47;;;34.67;;
61015;SDS011;46902;52.920;6.536;2023-05-15T03:26:17;54.20;;;33.25;;
61015;SDS011;46902;52.920;6.536;2023-05-15T03:28:43;43.45;;;32.50;;
61015;SDS011;46902;52.920;6.536;2023-05-15T03:31:08;38.55;;;31.77;;
61015;SDS011;46902;52.920;6.536;2023-05-15T03:33:34;36.33;;;30.10;;
61015;SDS011;46902;52.920;6.536;2023-05-15T03:36:02;43.60;;;29.83;;
61015;SDS011;46902;52.920;6.536;2023-05-15T03:38:28;35.47;;;28.83;;
61015;SDS011;46902;52.920;6.536;2023-05-15T03:40:53;37.20;;;29.13;;
61015;SDS011;46902;52.920;6.536;2023-05-15T03:43:19;40.60;;;28.92;;
61015;SDS011;46902;52.920;6.536;2023-05-15T03:45:44;35.08;;;27.55;;
61015;SDS011;46902;52.920;6.536;2023-05-15T03:48:10;33.78;;;28.05;;
61015;SDS011;46902;52.920;6.536;2023-05-15T03:50:35;34.58;;;27.77;;
61015;SDS011;46902;52.920;6.536;2023-05-15T03:53:01;36.10;;;28.67;;
61015;SDS011;46902;52.920;6.536;2023-05-15T03:55:27;37.00;;;28.92;;
61015;SDS011;46902;52.920;6.536;2023-05-15T03:57:52;40.03;;;29.50;;
61015;SDS011;46902;52.920;6.536;2023-05-15T04:00:18;38.65;;;30.02;;
61015;SDS011;46902;52.920;6.536;2023-05-15T04:02:44;37.85;;;28.63;;
61015;SDS011;46902;52.920;6.536;2023-05-15T04:05:10;37.58;;;28.10;;
61015;SDS011;46902;52.920;6.536;2023-05-15T04:07:36;35.88;;;27.55;;
61015;SDS011;46902;52.920;6.536;2023-05-15T04:10:02;35.60;;;27.02;;
61015;SDS011;46902;52.920;6.536;2023-05-15T04:12:28;35.83;;;27.10;;
61015;SDS011;46902;52.920;6.536;2023-05-15T04:14:57;34.47;;;26.92;;
61015;SDS011;46902;52.920;6.536;2023-05-15T04:17:23;36.95;;;27.38;;
61015;SDS011;46902;52.920;6.536;2023-05-15T04:19:49;32.50;;;25.73;;
61015;SDS011;46902;52.920;6.536;2023-05-15T04:22:15;35.22;;;26.50;;
61015;SDS011;46902;52.920;6.536;2023-05-15T04:24:40;33.20;;;25.83;;
61015;SDS011;46902;52.920;6.536;2023-05-15T04:27:06;32.50;;;25.58;;
61015;SDS011;46902;52.920;6.536;2023-05-15T04:29:31;32.33;;;26.15;;
61015;SDS011;46902;52.920;6.536;2023-05-15T04:31:57;32.47;;;25.65;;
61015;SDS011;46902;52.920;6.536;2023-05-15T04:34:23;30.83;;;25.20;;
61015;SDS011;46902;52.920;6.536;2023-05-15T04:36:48;30.05;;;25.27;;
61015;SDS011;46902;52.920;6.536;2023-05-15T04:39:14;33.25;;;26.05;;
61015;SDS011;46902;52.920;6.536;2023-05-15T04:41:40;30.35;;;23.98;;
61015;SDS011;46902;52.920;6.536;2023-05-15T04:44:06;30.27;;;25.30;;
61015;SDS011;46902;52.920;6.536;2023-05-15T04:46:32;29.10;;;24.95;;
61015;SDS011;46902;52.920;6.536;2023-05-15T04:48:58;30.80;;;26.27;;
61015;SDS011;46902;52.920;6.536;2023-05-15T04:51:24;28.83;;;25.00;;
61015;SDS011;46902;52.920;6.536;2023-05-15T04:53:50;24.35;;;21.75;;
61015;SDS011;46902;52.920;6.536;2023-05-15T04:56:16;28.42;;;23.40;;
61015;SDS011;46902;52.920;6.536;2023-05-15T04:58:41;26.73;;;23.83;;
61015;SDS011;46902;52.920;6.536;2023-05-15T05:01:07;26.90;;;24.00;;
61015;SDS011;46902;52.920;6.536;2023-05-15T05:03:32;28.63;;;24.00;;
61015;SDS011;46902;52.920;6.536;2023-05-15T05:05:58;28.42;;;22.67;;
61015;SDS011;46902;52.920;6.536;2023-05-15T05:08:27;27.02;;;22.48;;
61015;SDS011;46902;52.920;6.536;2023-05-15T05:10:55;25.67;;;21.95;;
61015;SDS011;46902;52.920;6.536;2023-05-15T05:13:21;26.10;;;23.27;;
61015;SDS011;46902;52.920;6.536;2023-05-15T05:15:47;26.50;;;22.85;;
61015;SDS011;46902;52.920;6.536;2023-05-15T05:18:13;23.98;;;21.05;;
61015;SDS011;46902;52.920;6.536;2023-05-15T05:20:38;25.00;;;22.27;;
61015;SDS011;46902;52.920;6.536;2023-05-15T05:23:04;25.85;;;22.42;;
61015;SDS011;46902;52.920;6.536;2023-05-15T05:25:29;24.40;;;21.65;;
61015;SDS011;46902;52.920;6.536;2023-05-15T05:27:55;24.33;;;21.77;;
61015;SDS011;46902;52.920;6.536;2023-05-15T05:30:21;25.30;;;22.60;;
61015;SDS011;46902;52.920;6.536;2023-05-15T05:32:46;26.13;;;21.58;;
61015;SDS011;46902;52.920;6.536;2023-05-15T05:35:12;23.65;;;21.10;;
61015;SDS011;46902;52.920;6.536;2023-05-15T05:37:38;23.50;;;20.38;;
61015;SDS011;46902;52.920;6.536;2023-05-15T05:40:03;27.52;;;22.00;;
61015;SDS011;46902;52.920;6.536;2023-05-15T05:42:30;26.02;;;21.77;;
61015;SDS011;46902;52.920;6.536;2023-05-15T05:44:56;24.60;;;20.27;;
61015;SDS011;46902;52.920;6.536;2023-05-15T05:47:22;24.30;;;21.70;;
61015;SDS011;46902;52.920;6.536;2023-05-15T05:49:47;25.00;;;21.00;;
61015;SDS011;46902;52.920;6.536;2023-05-15T05:52:13;22.35;;;19.83;;
61015;SDS011;46902;52.920;6.536;2023-05-15T05:54:40;23.50;;;20.83;;
61015;SDS011;46902;52.920;6.536;2023-05-15T05:57:06;22.05;;;19.73;;
61015;SDS011;46902;52.920;6.536;2023-05-15T05:59:33;22.83;;;20.42;;
61015;SDS011;46902;52.920;6.536;2023-05-15T06:01:59;22.65;;;20.30;;
61015;SDS011;46902;52.920;6.536;2023-05-15T06:04:25;21.15;;;19.05;;
61015;SDS011;46902;52.920;6.536;2023-05-15T06:06:50;21.33;;;19.02;;
61015;SDS011;46902;52.920;6.536;2023-05-15T06:09:17;23.58;;;19.15;;
61015;SDS011;46902;52.920;6.536;2023-05-15T06:11:43;23.08;;;19.10;;
61015;SDS011;46902;52.920;6.536;2023-05-15T06:14:09;21.95;;;19.65;;
61015;SDS011;46902;52.920;6.536;2023-05-15T06:16:35;19.88;;;17.88;;
61015;SDS011;46902;52.920;6.536;2023-05-15T06:19:00;21.20;;;18.85;;
61015;SDS011;46902;52.920;6.536;2023-05-15T06:21:26;21.65;;;19.42;;
61015;SDS011;46902;52.920;6.536;2023-05-15T06:23:52;21.88;;;19.20;;
61015;SDS011;46902;52.920;6.536;2023-05-15T06:26:17;21.95;;;19.60;;
61015;SDS011;46902;52.920;6.536;2023-05-15T06:28:43;21.92;;;18.17;;
61015;SDS011;46902;52.920;6.536;2023-05-15T06:31:09;19.67;;;17.60;;
61015;SDS011;46902;52.920;6.536;2023-05-15T06:33:35;21.75;;;18.23;;
61015;SDS011;46902;52.920;6.536;2023-05-15T06:36:00;20.25;;;17.95;;
61015;SDS011;46902;52.920;6.536;2023-05-15T06:38:26;20.38;;;18.23;;
61015;SDS011;46902;52.920;6.536;2023-05-15T06:40:51;20.40;;;18.17;;
61015;SDS011;46902;52.920;6.536;2023-05-15T06:43:17;21.75;;;18.27;;
61015;SDS011;46902;52.920;6.536;2023-05-15T06:45:42;22.42;;;18.95;;
61015;SDS011;46902;52.920;6.536;2023-05-15T06:48:08;21.05;;;18.45;;
61015;SDS011;46902;52.920;6.536;2023-05-15T06:50:34;21.30;;;18.10;;
61015;SDS011;46902;52.920;6.536;2023-05-15T06:52:59;20.70;;;18.48;;
61015;SDS011;46902;52.920;6.536;2023-05-15T06:55:25;23.30;;;18.33;;
61015;SDS011;46902;52.920;6.536;2023-05-15T06:57:50;20.50;;;18.30;;
61015;SDS011;46902;52.920;6.536;2023-05-15T07:00:16;19.83;;;17.73;;
61015;SDS011;46902;52.920;6.536;2023-05-15T07:02:42;18.02;;;16.23;;
61015;SDS011;46902;52.920;6.536;2023-05-15T07:05:07;21.25;;;18.00;;
61015;SDS011;46902;52.920;6.536;2023-05-15T07:07:34;20.35;;;18.13;;
61015;SDS011;46902;52.920;6.536;2023-05-15T07:10:00;18.33;;;16.42;;
61015;SDS011;46902;52.920;6.536;2023-05-15T07:12:25;19.73;;;17.40;;
61015;SDS011;46902;52.920;6.536;2023-05-15T07:14:51;19.55;;;17.58;;
61015;SDS011;46902;52.920;6.536;2023-05-15T07:17:16;19.58;;;17.52;;
61015;SDS011;46902;52.920;6.536;2023-05-15T07:19:43;18.63;;;16.75;;
61015;SDS011;46902;52.920;6.536;2023-05-15T07:22:09;17.17;;;15.18;;
61015;SDS011;46902;52.920;6.536;2023-05-15T07:24:34;17.90;;;15.93;;
61015;SDS011;46902;52.920;6.536;2023-05-15T07:27:00;20.38;;;15.43;;
61015;SDS011;46902;52.920;6.536;2023-05-15T07:29:26;23.02;;;15.57;;
61015;SDS011;46902;52.920;6.536;2023-05-15T07:31:51;18.45;;;16.55;;
61015;SDS011;46902;52.920;6.536;2023-05-15T07:34:17;18.45;;;16.45;;
61015;SDS011;46902;52.920;6.536;2023-05-15T07:36:42;19.77;;;17.67;;
61015;SDS011;46902;52.920;6.536;2023-05-15T07:39:08;20.23;;;17.15;;
61015;SDS011;46902;52.920;6.536;2023-05-15T07:41:34;20.33;;;18.17;;
61015;SDS011;46902;52.920;6.536;2023-05-15T07:43:59;21.40;;;19.20;;
61015;SDS011;46902;52.920;6.536;2023-05-15T07:46:25;20.50;;;18.35;;
61015;SDS011;46902;52.920;6.536;2023-05-15T07:48:51;20.83;;;18.73;;
61015;SDS011;46902;52.920;6.536;2023-05-15T07:51:16;20.02;;;17.98;;
61015;SDS011;46902;52.920;6.536;2023-05-15T07:53:42;23.77;;;17.98;;
61015;SDS011;46902;52.920;6.536;2023-05-15T07:56:07;20.17;;;17.83;;
61015;SDS011;46902;52.920;6.536;2023-05-15T07:58:33;19.60;;;17.63;;
61015;SDS011;46902;52.920;6.536;2023-05-15T08:01:01;21.90;;;17.02;;
61015;SDS011;46902;52.920;6.536;2023-05-15T08:03:26;18.60;;;16.77;;
61015;SDS011;46902;52.920;6.536;2023-05-15T08:05:52;18.67;;;16.70;;
61015;SDS011;46902;52.920;6.536;2023-05-15T08:08:17;17.10;;;15.15;;
61015;SDS011;46902;52.920;6.536;2023-05-15T08:10:43;17.00;;;15.25;;
61015;SDS011;46902;52.920;6.536;2023-05-15T08:13:08;16.30;;;14.70;;
61015;SDS011;46902;52.920;6.536;2023-05-15T08:15:34;17.27;;;14.10;;
61015;SDS011;46902;52.920;6.536;2023-05-15T08:18:00;14.02;;;12.13;;
61015;SDS011;46902;52.920;6.536;2023-05-15T08:20:25;17.67;;;15.73;;
61015;SDS011;46902;52.920;6.536;2023-05-15T08:22:51;17.33;;;15.52;;
61015;SDS011;46902;52.920;6.536;2023-05-15T08:25:16;17.45;;;15.65;;
61015;SDS011;46902;52.920;6.536;2023-05-15T08:27:42;15.73;;;14.13;;
61015;SDS011;46902;52.920;6.536;2023-05-15T08:30:08;18.77;;;16.00;;
61015;SDS011;46902;52.920;6.536;2023-05-15T08:32:33;18.63;;;15.88;;
61015;SDS011;46902;52.920;6.536;2023-05-15T08:34:59;19.95;;;15.95;;
61015;SDS011;46902;52.920;6.536;2023-05-15T08:37:25;18.17;;;14.18;;
61015;SDS011;46902;52.920;6.536;2023-05-15T08:39:50;16.60;;;14.88;;
61015;SDS011;46902;52.920;6.536;2023-05-15T08:42:34;23.85;;;15.90;;
61015;SDS011;46902;52.920;6.536;2023-05-15T08:45:17;20.95;;;14.40;;
61015;SDS011;46902;52.920;6.536;2023-05-15T08:47:44;16.80;;;15.00;;
61015;SDS011;46902;52.920;6.536;2023-05-15T08:50:13;19.02;;;15.60;;
61015;SDS011;46902;52.920;6.536;2023-05-15T08:52:41;16.33;;;13.35;;
61015;SDS011;46902;52.920;6.536;2023-05-15T08:55:09;16.95;;;13.93;;
61015;SDS011;46902;52.920;6.536;2023-05-15T08:57:35;17.08;;;14.95;;
61015;SDS011;46902;52.920;6.536;2023-05-15T09:00:03;15.70;;;14.18;;
61015;SDS011;46902;52.920;6.536;2023-05-15T09:02:38;15.82;;;13.85;;
61015;SDS011;46902;52.920;6.536;2023-05-15T09:05:05;15.95;;;14.27;;
61015;SDS011;46902;52.920;6.536;2023-05-15T09:07:32;17.35;;;14.80;;
61015;SDS011;46902;52.920;6.536;2023-05-15T09:10:00;18.17;;;14.70;;
61015;SDS011;46902;52.920;6.536;2023-05-15T09:12:26;17.35;;;15.10;;
61015;SDS011;46902;52.920;6.536;2023-05-15T09:15:11;18.38;;;14.32;;
61015;SDS011;46902;52.920;6.536;2023-05-15T09:17:39;15.52;;;14.02;;
61015;SDS011;46902;52.920;6.536;2023-05-15T09:20:10;16.63;;;13.10;;
61015;SDS011;46902;52.920;6.536;2023-05-15T09:22:51;14.80;;;13.30;;
61015;SDS011;46902;52.920;6.536;2023-05-15T09:28:07;11.73;;;10.13;;
61015;SDS011;46902;52.920;6.536;2023-05-15T09:30:36;12.57;;;10.13;;
61015;SDS011;46902;52.920;6.536;2023-05-15T09:33:02;13.20;;;11.80;;
61015;SDS011;46902;52.920;6.536;2023-05-15T09:35:35;12.40;;;10.30;;
61015;SDS011;46902;52.920;6.536;2023-05-15T09:38:03;13.40;;;9.90;;
61015;SDS011;46902;52.920;6.536;2023-05-15T09:40:32;12.43;;;9.68;;
61015;SDS011;46902;52.920;6.536;2023-05-15T09:42:58;11.20;;;9.80;;
61015;SDS011;46902;52.920;6.536;2023-05-15T09:45:24;12.40;;;10.90;;
61015;SDS011;46902;52.920;6.536;2023-05-15T09:47:51;14.35;;;10.80;;
61015;SDS011;46902;52.920;6.536;2023-05-15T09:50:21;10.02;;;8.32;;
61015;SDS011;46902;52.920;6.536;2023-05-15T09:52:48;12.10;;;8.73;;
61015;SDS011;46902;52.920;6.536;2023-05-15T09:55:15;10.85;;;8.02;;
61015;SDS011;46902;52.920;6.536;2023-05-15T09:57:44;10.27;;;8.07;;
61015;SDS011;46902;52.920;6.536;2023-05-15T10:00:28;11.55;;;8.35;;
61015;SDS011;46902;52.920;6.536;2023-05-15T10:02:56;14.82;;;9.45;;
61015;SDS011;46902;52.920;6.536;2023-05-15T10:05:25;10.77;;;9.68;;
61015;SDS011;46902;52.920;6.536;2023-05-15T10:07:53;11.73;;;10.10;;
61015;SDS011;46902;52.920;6.536;2023-05-15T10:10:20;12.30;;;9.32;;
61015;SDS011;46902;52.920;6.536;2023-05-15T10:12:46;12.15;;;9.43;;
61015;SDS011;46902;52.920;6.536;2023-05-15T10:15:14;11.35;;;10.02;;
61015;SDS011;46902;52.920;6.536;2023-05-15T10:17:40;15.07;;;10.60;;
61015;SDS011;46902;52.920;6.536;2023-05-15T10:20:09;13.18;;;9.73;;
61015;SDS011;46902;52.920;6.536;2023-05-15T10:22:36;15.15;;;10.82;;
61015;SDS011;46902;52.920;6.536;2023-05-15T10:25:10;14.45;;;11.02;;
61015;SDS011;46902;52.920;6.536;2023-05-15T10:27:37;12.40;;;10.10;;
61015;SDS011;46902;52.920;6.536;2023-05-15T10:30:05;14.82;;;10.90;;
61015;SDS011;46902;52.920;6.536;2023-05-15T10:32:33;10.80;;;9.27;;
61015;SDS011;46902;52.920;6.536;2023-05-15T10:35:00;15.27;;;9.40;;
61015;SDS011;46902;52.920;6.536;2023-05-15T10:37:27;12.48;;;9.60;;
61015;SDS011;46902;52.920;6.536;2023-05-15T10:39:54;14.18;;;11.68;;
61015;SDS011;46902;52.920;6.536;2023-05-15T10:42:22;14.43;;;12.27;;
61015;SDS011;46902;52.920;6.536;2023-05-15T10:44:51;13.13;;;11.27;;
61015;SDS011;46902;52.920;6.536;2023-05-15T10:47:23;12.70;;;11.18;;
61015;SDS011;46902;52.920;6.536;2023-05-15T10:49:50;14.43;;;11.45;;
61015;SDS011;46902;52.920;6.536;2023-05-15T10:52:16;13.60;;;10.27;;
61015;SDS011;46902;52.920;6.536;2023-05-15T10:54:42;10.43;;;9.38;;
61015;SDS011;46902;52.920;6.536;2023-05-15T10:57:07;11.40;;;9.07;;
61015;SDS011;46902;52.920;6.536;2023-05-15T10:59:34;13.82;;;9.32;;
61015;SDS011;46902;52.920;6.536;2023-05-15T11:04:55;12.48;;;8.68;;
61015;SDS011;46902;52.920;6.536;2023-05-15T11:07:22;11.63;;;9.00;;
61015;SDS011;46902;52.920;6.536;2023-05-15T11:09:51;10.75;;;8.98;;
61015;SDS011;46902;52.920;6.536;2023-05-15T11:12:17;11.25;;;8.93;;
61015;SDS011;46902;52.920;6.536;2023-05-15T11:17:18;11.27;;;8.85;;
61015;SDS011;46902;52.920;6.536;2023-05-15T11:22:19;14.00;;;10.60;;
61015;SDS011;46902;52.920;6.536;2023-05-15T11:24:50;11.93;;;10.43;;
61015;SDS011;46902;52.920;6.536;2023-05-15T11:32:43;11.70;;;8.85;;
61015;SDS011;46902;52.920;6.536;2023-05-15T11:35:23;12.57;;;9.02;;
61015;SDS011;46902;52.920;6.536;2023-05-15T11:37:49;9.68;;;8.48;;
61015;SDS011;46902;52.920;6.536;2023-05-15T11:45:40;10.30;;;7.57;;
61015;SDS011;46902;52.920;6.536;2023-05-15T11:48:08;10.70;;;7.68;;
61015;SDS011;46902;52.920;6.536;2023-05-15T11:50:38;8.10;;;7.28;;
61015;SDS011;46902;52.920;6.536;2023-05-15T11:53:05;11.20;;;7.90;;
61015;SDS011;46902;52.920;6.536;2023-05-15T11:55:32;7.78;;;6.32;;
61015;SDS011;46902;52.920;6.536;2023-05-15T11:58:00;7.10;;;5.75;;
61015;SDS011;46902;52.920;6.536;2023-05-15T12:00:26;7.05;;;5.10;;
61015;SDS011;46902;52.920;6.536;2023-05-15T12:02:52;7.72;;;6.10;;
61015;SDS011;46902;52.920;6.536;2023-05-15T12:05:18;8.25;;;6.70;;
61015;SDS011;46902;52.920;6.536;2023-05-15T12:07:43;8.52;;;7.43;;
61015;SDS011;46902;52.920;6.536;2023-05-15T12:10:10;8.65;;;7.32;;
61015;SDS011;46902;52.920;6.536;2023-05-15T12:12:40;8.50;;;7.32;;
61015;SDS011;46902;52.920;6.536;2023-05-15T12:15:07;10.60;;;7.55;;
61015;SDS011;46902;52.920;6.536;2023-05-15T12:17:38;10.88;;;8.05;;
61015;SDS011;46902;52.920;6.536;2023-05-15T12:20:08;8.00;;;7.20;;
61015;SDS011;46902;52.920;6.536;2023-05-15T12:22:38;10.65;;;7.00;;
61015;SDS011;46902;52.920;6.536;2023-05-15T12:25:04;11.43;;;8.10;;
61015;SDS011;46902;52.920;6.536;2023-05-15T12:27:31;10.10;;;7.68;;
61015;SDS011;46902;52.920;6.536;2023-05-15T12:29:57;8.38;;;7.25;;
61015;SDS011;46902;52.920;6.536;2023-05-15T12:32:23;10.88;;;7.50;;
61015;SDS011;46902;52.920;6.536;2023-05-15T12:34:50;8.18;;;7.38;;
61015;SDS011;46902;52.920;6.536;2023-05-15T12:37:18;7.90;;;6.70;;
61015;SDS011;46902;52.920;6.536;2023-05-15T12:39:55;7.57;;;6.80;;
61015;SDS011;46902;52.920;6.536;2023-05-15T12:42:23;8.70;;;7.38;;
61015;SDS011;46902;52.920;6.536;2023-05-15T12:44:53;7.90;;;6.43;;
61015;SDS011;46902;52.920;6.536;2023-05-15T12:47:24;9.13;;;6.45;;
61015;SDS011;46902;52.920;6.536;2023-05-15T12:49:57;7.55;;;6.25;;
61015;SDS011;46902;52.920;6.536;2023-05-15T12:52:22;6.95;;;5.82;;
61015;SDS011;46902;52.920;6.536;2023-05-15T12:54:53;9.93;;;6.28;;
61015;SDS011;46902;52.920;6.536;2023-05-15T12:57:18;7.25;;;5.55;;
61015;SDS011;46902;52.920;6.536;2023-05-15T12:59:44;10.23;;;5.88;;
61015;SDS011;46902;52.920;6.536;2023-05-15T13:02:10;10.00;;;7.15;;
61015;SDS011;46902;52.920;6.536;2023-05-15T13:04:37;8.63;;;6.25;;
61015;SDS011;46902;52.920;6.536;2023-05-15T13:07:03;7.82;;;6.88;;
61015;SDS011;46902;52.920;6.536;2023-05-15T13:09:29;10.43;;;6.70;;
61015;SDS011;46902;52.920;6.536;2023-05-15T13:11:55;9.15;;;7.18;;
61015;SDS011;46902;52.920;6.536;2023-05-15T13:14:21;15.77;;;7.35;;
61015;SDS011;46902;52.920;6.536;2023-05-15T13:16:51;9.77;;;6.93;;
61015;SDS011;46902;52.920;6.536;2023-05-15T13:19:17;8.63;;;6.40;;
61015;SDS011;46902;52.920;6.536;2023-05-15T13:21:43;7.72;;;5.50;;
61015;SDS011;46902;52.920;6.536;2023-05-15T13:24:09;9.07;;;6.45;;
61015;SDS011;46902;52.920;6.536;2023-05-15T13:26:35;8.23;;;5.90;;
61015;SDS011;46902;52.920;6.536;2023-05-15T13:29:01;8.88;;;7.55;;
61015;SDS011;46902;52.920;6.536;2023-05-15T13:31:26;10.38;;;7.60;;
61015;SDS011;46902;52.920;6.536;2023-05-15T13:33:52;10.82;;;7.32;;
61015;SDS011;46902;52.920;6.536;2023-05-15T13:36:17;9.07;;;6.93;;
61015;SDS011;46902;52.920;6.536;2023-05-15T13:38:43;8.93;;;6.30;;
61015;SDS011;46902;52.920;6.536;2023-05-15T13:41:09;11.05;;;7.03;;
61015;SDS011;46902;52.920;6.536;2023-05-15T13:43:34;10.77;;;6.55;;
61015;SDS011;46902;52.920;6.536;2023-05-15T13:46:00;9.35;;;6.53;;
61015;SDS011;46902;52.920;6.536;2023-05-15T13:48:25;7.82;;;6.03;;
61015;SDS011;46902;52.920;6.536;2023-05-15T13:50:51;8.00;;;6.43;;
61015;SDS011;46902;52.920;6.536;2023-05-15T13:53:19;7.22;;;6.28;;
61015;SDS011;46902;52.920;6.536;2023-05-15T13:55:45;8.73;;;6.00;;
61015;SDS011;46902;52.920;6.536;2023-05-15T13:58:11;6.60;;;5.57;;
61015;SDS011;46902;52.920;6.536;2023-05-15T14:00:37;6.75;;;4.30;;
61015;SDS011;46902;52.920;6.536;2023-05-15T14:03:04;5.93;;;5.00;;
61015;SDS011;46902;52.920;6.536;2023-05-15T14:05:30;10.30;;;4.82;;
61015;SDS011;46902;52.920;6.536;2023-05-15T14:07:56;7.65;;;4.45;;
61015;SDS011;46902;52.920;6.536;2023-05-15T14:10:22;7.38;;;4.25;;
61015;SDS011;46902;52.920;6.536;2023-05-15T14:12:50;6.20;;;5.03;;
61015;SDS011;46902;52.920;6.536;2023-05-15T14:15:16;6.45;;;4.20;;
61015;SDS011;46902;52.920;6.536;2023-05-15T14:17:42;8.05;;;4.05;;
61015;SDS011;46902;52.920;6.536;2023-05-15T14:20:08;5.30;;;4.07;;
61015;SDS011;46902;52.920;6.536;2023-05-15T14:22:35;5.45;;;4.40;;
61015;SDS011;46902;52.920;6.536;2023-05-15T14:25:02;6.50;;;4.50;;
61015;SDS011;46902;52.920;6.536;2023-05-15T14:27:28;10.43;;;4.20;;
61015;SDS011;46902;52.920;6.536;2023-05-15T14:29:54;5.85;;;4.25;;
61015;SDS011;46902;52.920;6.536;2023-05-15T14:32:21;5.15;;;3.70;;
61015;SDS011;46902;52.920;6.536;2023-05-15T14:34:47;7.18;;;4.32;;
61015;SDS011;46902;52.920;6.536;2023-05-15T14:37:13;7.20;;;4.75;;
61015;SDS011;46902;52.920;6.536;2023-05-15T14:39:39;7.45;;;5.40;;
61015;SDS011;46902;52.920;6.536;2023-05-15T14:42:05;15.38;;;6.28;;
61015;SDS011;46902;52.920;6.536;2023-05-15T14:44:32;8.30;;;5.90;;
61015;SDS011;46902;52.920;6.536;2023-05-15T14:47:04;8.02;;;6.20;;
61015;SDS011;46902;52.920;6.536;2023-05-15T14:49:37;6.93;;;5.95;;
61015;SDS011;46902;52.920;6.536;2023-05-15T14:52:04;8.52;;;6.35;;
61015;SDS011;46902;52.920;6.536;2023-05-15T14:54:32;11.73;;;6.22;;
61015;SDS011;46902;52.920;6.536;2023-05-15T14:56:57;12.63;;;6.65;;
61015;SDS011;46902;52.920;6.536;2023-05-15T14:59:23;8.55;;;6.45;;
61015;SDS011;46902;52.920;6.536;2023-05-15T15:01:50;7.22;;;6.18;;